createdAt,value
2018-05-01T00:00:09.098Z,0.30
2018-05-01T00:02:37.305Z,0.57
2018-05-01T00:05:05.994Z,0.43
2018-05-01T00:07:34.187Z,0.60
2018-05-01T00:10:02.392Z,0.80
2018-05-01T00:12:31.046Z,0.70
2018-05-01T00:14:59.284Z,0.53
2018-05-01T00:17:27.481Z,0.57
2018-05-01T00:19:56.174Z,0.60
2018-05-01T00:22:24.394Z,0.50
2018-05-01T00:24:52.550Z,0.70
2018-05-01T00:27:21.184Z,0.70
2018-05-01T00:29:49.452Z,0.77
2018-05-01T00:32:17.686Z,0.73
2018-05-01T00:34:46.361Z,0.70
2018-05-01T00:37:14.636Z,0.80
2018-05-01T00:39:42.844Z,0.60
2018-05-01T00:42:11.884Z,0.70
2018-05-01T00:44:40.520Z,0.70
2018-05-01T00:47:08.702Z,0.80
2018-05-01T00:49:36.899Z,0.70
2018-05-01T00:52:05.656Z,0.90
2018-05-01T00:54:33.897Z,1.17
2018-05-01T00:57:02.131Z,1.10
2018-05-01T00:59:30.696Z,0.90
2018-05-01T01:01:59.795Z,0.70
2018-05-01T01:04:28.255Z,0.73
2018-05-01T01:06:56.877Z,0.83
2018-05-01T01:09:25.149Z,0.80
2018-05-01T01:11:53.395Z,0.73
2018-05-01T01:14:21.980Z,0.67
2018-05-01T01:16:50.184Z,0.60
2018-05-01T01:19:18.480Z,0.90
2018-05-01T01:21:47.116Z,0.80
2018-05-01T01:24:15.329Z,0.80
2018-05-01T01:26:43.560Z,0.60
2018-05-01T01:29:12.241Z,0.60
2018-05-01T01:31:40.435Z,1.00
2018-05-01T01:34:08.764Z,1.00
2018-05-01T01:36:36.739Z,0.70
2018-05-01T01:39:04.472Z,0.93
2018-05-01T01:41:32.579Z,1.13
2018-05-01T01:44:00.280Z,0.90
2018-05-01T01:46:28.235Z,1.30
2018-05-01T01:48:55.923Z,0.90
2018-05-01T01:51:23.591Z,1.27
2018-05-01T01:53:51.828Z,2.03
2018-05-01T01:56:19.478Z,1.40
2018-05-01T01:58:47.707Z,1.53
2018-05-01T02:01:15.376Z,1.67
2018-05-01T02:03:43.658Z,1.70
2018-05-01T02:06:11.339Z,1.50
2018-05-01T02:08:39.386Z,1.77
2018-05-01T02:11:07.976Z,1.87
2018-05-01T02:13:35.761Z,1.80
2018-05-01T02:16:03.874Z,2.07
2018-05-01T02:18:31.595Z,2.37
2018-05-01T02:20:59.266Z,2.80
2018-05-01T02:23:27.377Z,2.73
2018-05-01T02:25:55.027Z,2.63
2018-05-01T02:28:23.281Z,2.73
2018-05-01T02:30:51.027Z,2.20
2018-05-01T02:33:19.109Z,2.60
2018-05-01T02:35:46.786Z,1.63
2018-05-01T02:38:14.438Z,1.80
2018-05-01T02:40:42.494Z,2.13
2018-05-01T02:43:10.169Z,1.87
2018-05-01T02:45:38.526Z,2.00
2018-05-01T02:48:06.197Z,2.70
2018-05-01T02:50:34.294Z,2.50
2018-05-01T02:53:01.970Z,2.97
2018-05-01T02:55:29.630Z,2.63
2018-05-01T02:57:57.774Z,2.50
2018-05-01T03:00:25.479Z,2.33
2018-05-01T03:02:53.611Z,2.60
2018-05-01T03:05:21.275Z,3.00
2018-05-01T03:07:49.391Z,2.90
2018-05-01T03:10:17.098Z,2.90
2018-05-01T03:12:44.768Z,3.70
2018-05-01T03:15:13.081Z,3.97
2018-05-01T03:17:40.751Z,3.33
2018-05-01T03:20:09.065Z,3.40
2018-05-01T03:22:36.778Z,3.37
2018-05-01T03:25:04.840Z,3.70
2018-05-01T03:27:32.553Z,3.37
2018-05-01T03:30:00.194Z,3.90
2018-05-01T03:32:28.369Z,3.83
2018-05-01T03:34:56.037Z,3.67
2018-05-01T03:37:24.096Z,3.70
2018-05-01T03:39:51.779Z,3.47
2018-05-01T03:42:19.922Z,4.17
2018-05-01T03:44:47.639Z,4.07
2018-05-01T03:47:15.330Z,4.10
2018-05-01T03:49:43.574Z,3.67
2018-05-01T03:52:11.244Z,3.50
2018-05-01T03:54:39.462Z,4.47
2018-05-01T03:57:07.131Z,3.97
2018-05-01T03:59:35.423Z,3.87
2018-05-01T04:02:03.693Z,4.70
2018-05-01T04:04:31.353Z,5.30
2018-05-01T04:06:59.677Z,5.33
2018-05-01T04:09:27.367Z,4.73
2018-05-01T04:11:55.376Z,5.73
2018-05-01T04:14:23.064Z,5.67
2018-05-01T04:16:50.740Z,5.67
2018-05-01T04:19:19.029Z,5.77
2018-05-01T04:21:46.841Z,5.67
2018-05-01T04:24:14.938Z,6.13
2018-05-01T04:26:42.637Z,5.97
2018-05-01T04:29:10.740Z,6.40
2018-05-01T04:34:12.193Z,6.07
2018-05-01T04:36:40.042Z,6.80
2018-05-01T04:39:07.740Z,7.00
2018-05-01T04:41:35.864Z,7.13
2018-05-01T04:44:03.606Z,6.73
2018-05-01T04:46:31.261Z,6.97
2018-05-01T04:48:59.366Z,7.10
2018-05-01T04:51:27.063Z,7.13
2018-05-01T04:53:55.172Z,7.40
2018-05-01T04:56:39.231Z,6.70
2018-05-01T04:59:10.815Z,6.57
2018-05-01T05:01:53.952Z,6.73
2018-05-01T05:04:28.449Z,7.93
2018-05-01T05:06:56.107Z,6.67
2018-05-01T05:09:23.829Z,6.70
2018-05-01T05:11:51.502Z,6.47
2018-05-01T05:14:19.641Z,6.40
2018-05-01T05:16:47.307Z,5.90
2018-05-01T05:19:15.486Z,5.67
2018-05-01T05:21:43.161Z,6.00
2018-05-01T05:24:11.346Z,6.40
2018-05-01T05:26:39.000Z,5.80
2018-05-01T05:29:06.641Z,6.33
2018-05-01T05:31:34.877Z,5.73
2018-05-01T05:34:02.528Z,6.07
2018-05-01T05:36:30.768Z,5.10
2018-05-01T05:38:58.467Z,5.57
2018-05-01T05:41:26.603Z,5.67
2018-05-01T05:43:54.294Z,5.77
2018-05-01T05:46:21.966Z,5.17
2018-05-01T05:48:50.186Z,5.60
2018-05-01T05:51:17.850Z,5.83
2018-05-01T05:53:45.956Z,5.47
2018-05-01T05:56:13.627Z,6.20
2018-05-01T05:58:41.839Z,5.50
2018-05-01T06:01:09.581Z,6.00
2018-05-01T06:03:37.303Z,5.37
2018-05-01T06:06:05.303Z,5.63
2018-05-01T06:08:32.982Z,5.73
2018-05-01T06:11:01.211Z,5.27
2018-05-01T06:13:29.008Z,5.83
2018-05-01T06:15:57.068Z,5.90
2018-05-01T06:18:26.176Z,6.03
2018-05-01T06:20:53.834Z,5.37
2018-05-01T06:23:21.521Z,5.47
2018-05-01T06:25:49.195Z,4.97
2018-05-01T06:28:17.154Z,5.07
2018-05-01T06:30:44.875Z,5.67
2018-05-01T06:33:12.551Z,4.70
2018-05-01T06:35:40.855Z,5.77
2018-05-01T06:38:08.550Z,5.70
2018-05-01T06:40:36.636Z,5.47
2018-05-01T06:43:04.311Z,5.60
2018-05-01T06:45:32.535Z,5.43
2018-05-01T06:48:01.582Z,5.30
2018-05-01T06:50:29.234Z,5.27
2018-05-01T06:52:56.952Z,5.30
2018-05-01T06:55:24.620Z,7.77
2018-05-01T06:57:52.709Z,5.07
2018-05-01T07:00:20.411Z,4.87
2018-05-01T07:02:48.076Z,5.17
2018-05-01T07:05:16.252Z,5.73
2018-05-01T07:07:43.912Z,5.23
2018-05-01T07:10:12.508Z,4.83
2018-05-01T07:12:40.145Z,5.07
2018-05-01T07:15:07.897Z,4.80
2018-05-01T07:17:35.580Z,4.63
2018-05-01T07:20:03.264Z,5.33
2018-05-01T07:22:31.377Z,4.90
2018-05-01T07:24:59.045Z,5.20
2018-05-01T07:27:27.355Z,4.40
2018-05-01T07:29:55.094Z,5.40
2018-05-01T07:32:23.255Z,5.00
2018-05-01T07:34:50.996Z,5.10
2018-05-01T07:37:18.663Z,5.27
2018-05-01T07:39:46.668Z,4.47
2018-05-01T07:42:14.363Z,4.73
2018-05-01T07:44:42.597Z,4.93
2018-05-01T07:47:10.271Z,5.17
2018-05-01T07:49:38.461Z,5.10
2018-05-01T07:52:06.186Z,5.53
2018-05-01T07:54:33.849Z,4.73
2018-05-01T07:57:01.970Z,5.30
2018-05-01T07:59:29.647Z,5.03
2018-05-01T08:01:58.670Z,4.80
2018-05-01T08:04:27.069Z,5.63
2018-05-01T08:06:54.904Z,5.67
2018-05-01T08:09:23.051Z,5.57
2018-05-01T08:11:51.123Z,5.37
2018-05-01T08:14:19.239Z,4.57
2018-05-01T08:17:08.229Z,5.50
2018-05-01T08:19:38.397Z,5.17
2018-05-01T08:22:10.887Z,5.40
2018-05-01T08:24:43.960Z,5.27
2018-05-01T08:27:12.858Z,5.83
2018-05-01T08:29:40.986Z,6.30
2018-05-01T08:32:09.768Z,5.90
2018-05-01T08:34:38.759Z,6.17
2018-05-01T08:37:06.643Z,5.93
2018-05-01T08:39:35.159Z,5.73
2018-05-01T08:42:03.541Z,5.97
2018-05-01T08:44:33.448Z,5.03
2018-05-01T08:47:01.938Z,5.83
2018-05-01T08:49:29.849Z,5.40
2018-05-01T08:51:57.592Z,5.63
2018-05-01T08:54:25.259Z,6.13
2018-05-01T08:56:53.320Z,6.20
2018-05-01T08:59:20.986Z,6.00
2018-05-01T09:01:49.201Z,6.17
2018-05-01T09:04:16.982Z,5.80
2018-05-01T09:06:45.021Z,5.40
2018-05-01T09:09:12.739Z,6.00
2018-05-01T09:11:40.452Z,6.27
2018-05-01T09:14:09.610Z,6.17
2018-05-01T09:16:37.297Z,5.37
2018-05-01T09:19:05.218Z,5.47
2018-05-01T09:21:32.912Z,5.77
2018-05-01T09:24:01.247Z,5.07
2018-05-01T09:26:29.559Z,4.50
2018-05-01T09:28:57.256Z,5.00
2018-05-01T09:31:25.371Z,5.33
2018-05-01T09:33:53.062Z,4.70
2018-05-01T09:36:20.868Z,4.90
2018-05-01T09:38:49.209Z,4.60
2018-05-01T09:41:16.987Z,4.20
2018-05-01T09:43:45.192Z,4.40
2018-05-01T09:46:14.046Z,4.07
2018-05-01T09:48:41.716Z,3.97
2018-05-01T09:51:10.004Z,4.33
2018-05-01T09:53:38.202Z,5.27
2018-05-01T09:56:06.420Z,5.40
2018-05-01T09:58:35.265Z,5.00
2018-05-01T10:01:04.073Z,4.93
2018-05-01T10:03:33.653Z,8.47
2018-05-01T10:09:43.283Z,5.77
2018-05-01T10:16:00.154Z,5.10
2018-05-01T10:18:38.071Z,5.23
2018-05-01T10:21:17.872Z,5.60
2018-05-01T10:24:03.603Z,5.13
2018-05-01T10:26:52.549Z,5.40
2018-05-01T10:29:29.860Z,5.60
2018-05-01T10:32:05.240Z,5.03
2018-05-01T10:34:34.697Z,5.50
2018-05-01T10:37:03.641Z,5.10
2018-05-01T10:39:32.367Z,5.43
2018-05-01T10:42:00.657Z,5.17
2018-05-01T10:44:28.873Z,5.03
2018-05-01T10:46:57.342Z,4.97
2018-05-01T10:49:25.609Z,5.20
2018-05-01T10:51:53.826Z,6.50
2018-05-01T10:54:22.462Z,5.27
2018-05-01T10:56:50.763Z,5.90
2018-05-01T10:59:18.973Z,6.03
2018-05-01T11:01:47.569Z,5.90
2018-05-01T11:04:15.811Z,6.30
2018-05-01T11:06:44.014Z,7.07
2018-05-01T11:09:12.782Z,6.27
2018-05-01T11:11:40.994Z,6.83
2018-05-01T11:14:09.173Z,6.13
2018-05-01T11:16:38.004Z,8.40
2018-05-01T11:19:06.786Z,7.60
2018-05-01T11:21:35.005Z,5.83
2018-05-01T11:24:03.242Z,7.57
2018-05-01T11:26:31.902Z,6.40
2018-05-01T11:29:00.111Z,5.70
2018-05-01T11:31:28.436Z,5.93
2018-05-01T11:33:57.102Z,5.60
2018-05-01T11:36:25.285Z,5.90
2018-05-01T11:38:53.552Z,5.90
2018-05-01T11:41:22.318Z,5.80
2018-05-01T11:43:50.573Z,5.77
2018-05-01T11:46:18.804Z,7.07
2018-05-01T11:48:47.434Z,7.37
2018-05-01T11:51:15.644Z,7.57
2018-05-01T11:53:44.982Z,7.87
2018-05-01T11:56:13.614Z,7.33
2018-05-01T11:58:41.840Z,6.10
2018-05-01T12:01:10.054Z,6.30
2018-05-01T12:03:38.590Z,5.33
2018-05-01T12:06:06.807Z,5.23
2018-05-01T12:08:34.986Z,5.40
2018-05-01T12:11:03.673Z,5.10
2018-05-01T12:13:31.892Z,5.93
2018-05-01T12:16:00.107Z,6.17
2018-05-01T12:18:29.008Z,5.83
2018-05-01T12:20:57.278Z,5.07
2018-05-01T12:23:25.485Z,4.43
2018-05-01T12:25:53.902Z,3.60
2018-05-01T12:28:22.131Z,4.87
2018-05-01T12:30:50.350Z,4.70
2018-05-01T12:33:19.139Z,4.03
2018-05-01T12:35:47.453Z,3.53
2018-05-01T12:38:15.650Z,3.73
2018-05-01T12:40:44.274Z,3.77
2018-05-01T12:43:12.541Z,4.00
2018-05-01T12:45:40.744Z,4.20
2018-05-01T12:48:09.456Z,3.50
2018-05-01T12:50:37.717Z,3.27
2018-05-01T12:53:05.937Z,3.13
2018-05-01T12:55:34.464Z,3.17
2018-05-01T12:58:02.679Z,3.40
2018-05-01T13:00:30.911Z,4.20
2018-05-01T13:02:59.571Z,3.97
2018-05-01T13:05:27.829Z,3.27
2018-05-01T13:07:56.059Z,3.40
2018-05-01T13:10:24.712Z,3.57
2018-05-01T13:12:53.005Z,3.97
2018-05-01T13:15:21.223Z,3.80
2018-05-01T13:17:49.795Z,3.77
2018-05-01T13:20:17.983Z,2.63
2018-05-01T13:22:46.202Z,2.50
2018-05-01T13:25:14.883Z,2.90
2018-05-01T13:27:43.086Z,2.50
2018-05-01T13:30:11.307Z,2.90
2018-05-01T13:32:39.831Z,2.50
2018-05-01T13:38:07.965Z,2.30
2018-05-01T13:40:36.803Z,3.10
2018-05-01T13:43:05.534Z,3.00
2018-05-01T13:45:33.725Z,2.70
2018-05-01T13:48:03.246Z,2.70
2018-05-01T13:50:31.583Z,2.60
2018-05-01T13:52:59.810Z,2.60
2018-05-01T13:55:28.831Z,4.17
2018-05-01T13:57:57.461Z,3.40
2018-05-01T14:00:25.739Z,2.90
2018-05-01T14:02:54.447Z,3.07
2018-05-01T14:05:23.409Z,2.60
2018-05-01T14:07:52.306Z,2.80
2018-05-01T14:10:20.534Z,3.13
2018-05-01T14:12:49.333Z,17.43
2018-05-01T14:15:18.182Z,3.17
2018-05-01T14:17:47.117Z,3.00
2018-05-01T14:20:15.411Z,2.70
2018-05-01T14:22:44.297Z,2.33
2018-05-01T14:25:13.347Z,2.50
2018-05-01T14:27:42.065Z,1.97
2018-05-01T14:30:10.293Z,1.90
2018-05-01T14:32:39.080Z,2.03
2018-05-01T14:35:07.889Z,2.10
2018-05-01T14:37:36.855Z,2.43
2018-05-01T14:40:05.153Z,2.20
2018-05-01T14:42:33.869Z,2.50
2018-05-01T14:45:02.852Z,2.37
2018-05-01T14:47:31.717Z,2.63
2018-05-01T14:52:34.383Z,2.37
2018-05-01T14:55:03.040Z,1.90
2018-05-01T14:57:31.625Z,2.10
2018-05-01T14:59:59.843Z,2.10
2018-05-01T15:02:28.775Z,2.00
2018-05-01T15:04:57.515Z,2.10
2018-05-01T15:07:26.556Z,2.57
2018-05-01T15:09:54.806Z,2.67
2018-05-01T15:12:23.659Z,2.37
2018-05-01T15:14:52.547Z,2.63
2018-05-01T15:17:21.487Z,3.30
2018-05-01T15:19:49.706Z,8.47
2018-05-01T15:22:18.887Z,4.20
2018-05-01T15:24:47.746Z,3.67
2018-05-01T15:27:16.392Z,2.97
2018-05-01T15:29:44.610Z,2.73
2018-05-01T15:32:13.473Z,3.90
2018-05-01T15:34:42.014Z,4.30
2018-05-01T15:37:10.298Z,3.10
2018-05-01T15:39:38.512Z,3.33
2018-05-01T15:42:07.103Z,3.07
2018-05-01T15:44:35.373Z,10.73
2018-05-01T15:47:03.566Z,2.97
2018-05-01T15:49:32.614Z,3.60
2018-05-01T15:52:01.563Z,3.03
2018-05-01T15:54:29.757Z,2.80
2018-05-01T15:56:58.581Z,2.40
2018-05-01T15:59:27.141Z,3.33
2018-05-01T16:01:55.426Z,3.50
2018-05-01T16:04:23.811Z,21.37
2018-05-01T16:06:52.813Z,7.43
2018-05-01T16:09:21.741Z,3.53
2018-05-01T16:11:51.047Z,3.10
2018-05-01T16:14:19.917Z,3.40
2018-05-01T16:16:48.984Z,4.80
2018-05-01T16:19:18.077Z,3.67
2018-05-01T16:21:46.594Z,8.10
2018-05-01T16:29:58.295Z,4.57
2018-05-01T16:32:42.319Z,7.77
2018-05-01T16:35:25.625Z,3.67
2018-05-01T16:38:22.771Z,3.20
2018-05-01T16:41:00.121Z,4.20
2018-05-01T16:44:07.533Z,3.97
2018-05-01T16:46:45.843Z,3.77
2018-05-01T16:54:47.382Z,4.70
2018-05-01T16:57:19.157Z,3.67
2018-05-01T16:59:49.490Z,6.30
2018-05-01T17:02:19.526Z,7.43
2018-05-01T17:04:50.354Z,7.93
2018-05-01T17:07:18.749Z,4.27
2018-05-01T17:09:48.570Z,4.20
2018-05-01T17:12:17.355Z,4.33
2018-05-01T17:14:45.924Z,4.23
2018-05-01T17:17:14.112Z,6.50
2018-05-01T17:19:43.348Z,5.77
2018-05-01T17:22:12.267Z,4.57
2018-05-01T17:24:41.015Z,4.77
2018-05-01T17:27:09.267Z,3.97
2018-05-01T17:29:38.131Z,4.03
2018-05-01T17:32:06.894Z,4.77
2018-05-01T17:34:35.927Z,3.90
2018-05-01T17:37:04.207Z,3.63
2018-05-01T17:39:32.979Z,4.53
2018-05-01T17:42:01.951Z,4.07
2018-05-01T17:44:30.866Z,3.73
2018-05-01T17:46:59.119Z,4.10
2018-05-01T17:49:28.848Z,5.27
2018-05-01T17:51:57.125Z,3.60
2018-05-01T17:54:25.951Z,3.00
2018-05-01T17:56:54.202Z,3.00
2018-05-01T17:59:22.819Z,3.03
2018-05-01T18:01:51.880Z,4.40
2018-05-01T18:04:20.792Z,3.30
2018-05-01T18:06:48.991Z,3.77
2018-05-01T18:09:17.888Z,5.03
2018-05-01T18:11:46.724Z,3.23
2018-05-01T18:14:15.630Z,3.47
2018-05-01T18:16:43.856Z,3.60
2018-05-01T18:19:12.768Z,3.37
2018-05-01T18:21:41.551Z,3.40
2018-05-01T18:24:10.726Z,3.47
2018-05-01T18:26:39.034Z,5.60
2018-05-01T18:29:07.712Z,3.47
2018-05-01T18:31:36.597Z,3.50
2018-05-01T18:34:05.640Z,3.10
2018-05-01T18:36:34.056Z,3.10
2018-05-01T18:39:02.752Z,19.57
2018-05-01T18:41:31.670Z,13.90
2018-05-01T18:43:59.936Z,4.30
2018-05-01T18:46:28.212Z,3.03
2018-05-01T18:48:57.199Z,3.70
2018-05-01T18:51:26.225Z,3.80
2018-05-01T18:53:54.590Z,3.67
2018-05-01T18:56:24.222Z,3.07
2018-05-01T18:58:54.630Z,3.30
2018-05-01T19:01:23.331Z,2.80
2018-05-01T19:03:54.791Z,2.97
2018-05-01T19:06:24.529Z,3.00
2018-05-01T19:08:53.198Z,3.13
2018-05-01T19:11:21.884Z,3.40
2018-05-01T19:13:50.962Z,3.43
2018-05-01T19:16:20.437Z,7.33
2018-05-01T19:18:49.312Z,6.03
2018-05-01T19:21:18.029Z,7.17
2018-05-01T19:23:46.286Z,5.17
2018-05-01T19:26:15.286Z,3.97
2018-05-01T19:28:43.969Z,4.07
2018-05-01T19:31:12.216Z,3.90
2018-05-01T19:33:41.017Z,4.80
2018-05-01T19:36:10.027Z,4.40
2018-05-01T19:38:38.845Z,3.63
2018-05-01T19:41:07.143Z,4.07
2018-05-01T19:43:36.240Z,3.47
2018-05-01T19:46:05.556Z,3.37
2018-05-01T19:48:35.228Z,3.80
2018-05-01T19:51:04.653Z,3.97
2018-05-01T19:53:33.951Z,3.53
2018-05-01T19:56:06.382Z,4.07
2018-05-01T19:58:35.273Z,3.70
2018-05-01T20:01:04.854Z,3.67
2018-05-01T20:03:34.379Z,3.77
2018-05-01T20:06:03.536Z,3.80
2018-05-01T20:08:32.219Z,3.70
2018-05-01T20:11:00.949Z,3.27
2018-05-01T20:13:33.444Z,3.83
2018-05-01T20:16:02.345Z,4.47
2018-05-01T20:18:31.226Z,3.73
2018-05-01T20:21:00.654Z,4.50
2018-05-01T20:23:29.752Z,4.30
2018-05-01T20:25:59.095Z,4.10
2018-05-01T20:28:28.662Z,3.00
2018-05-01T20:30:57.858Z,3.80
2018-05-01T20:33:26.624Z,3.93
2018-05-01T20:35:55.114Z,4.07
2018-05-01T20:38:24.449Z,3.50
2018-05-01T20:40:53.393Z,3.83
2018-05-01T20:43:22.232Z,3.60
2018-05-01T20:45:50.483Z,3.60
2018-05-01T20:48:19.263Z,3.87
2018-05-01T20:50:50.332Z,4.40
2018-05-01T20:53:18.561Z,3.87
2018-05-01T20:55:47.219Z,3.60
2018-05-01T20:58:15.425Z,3.53
2018-05-01T21:00:43.635Z,3.07
2018-05-01T21:03:12.258Z,3.70
2018-05-01T21:05:40.631Z,3.40
2018-05-01T21:08:09.402Z,3.70
2018-05-01T21:10:38.294Z,3.43
2018-05-01T21:13:06.566Z,3.70
2018-05-01T21:15:34.764Z,2.87
2018-05-01T21:18:03.553Z,3.07
2018-05-01T21:20:32.256Z,3.43
2018-05-01T21:23:00.472Z,3.13
2018-05-01T21:25:28.719Z,3.07
2018-05-01T21:27:57.407Z,3.00
2018-05-01T21:30:25.629Z,3.37
2018-05-01T21:32:53.843Z,3.43
2018-05-01T21:35:22.499Z,4.07
2018-05-01T21:37:50.713Z,3.60
2018-05-01T21:40:18.933Z,3.40
2018-05-01T21:42:47.639Z,3.93
2018-05-01T21:45:15.859Z,3.83
2018-05-01T21:47:44.081Z,3.60
2018-05-01T21:50:12.767Z,3.80
2018-05-01T21:52:41.028Z,3.53
2018-05-01T21:55:09.227Z,3.17
2018-05-01T21:57:37.953Z,3.40
2018-05-01T22:00:06.153Z,3.53
2018-05-01T22:02:35.005Z,3.77
2018-05-01T22:05:03.538Z,3.90
2018-05-01T22:07:31.805Z,3.57
2018-05-01T22:10:00.090Z,3.80
2018-05-01T22:12:28.616Z,3.80
2018-05-01T22:14:56.873Z,3.87
2018-05-01T22:17:25.181Z,4.27
2018-05-01T22:19:53.825Z,4.27
2018-05-01T22:22:22.047Z,4.60
2018-05-01T22:24:50.268Z,4.13
2018-05-01T22:27:18.864Z,5.03
2018-05-01T22:29:47.125Z,4.93
2018-05-01T22:32:15.377Z,4.50
2018-05-01T22:34:43.948Z,4.63
2018-05-01T22:37:12.160Z,4.30
2018-05-01T22:39:40.485Z,4.43
2018-05-01T22:42:09.205Z,4.93
2018-05-01T22:44:37.472Z,5.00
2018-05-01T22:47:05.749Z,4.80
2018-05-01T22:49:34.253Z,5.23
2018-05-01T22:52:02.466Z,5.23
2018-05-01T22:54:30.717Z,5.20
2018-05-01T22:56:59.322Z,5.40
2018-05-01T22:59:27.549Z,5.20
2018-05-01T23:01:55.747Z,5.40
2018-05-01T23:04:24.433Z,5.53
2018-05-01T23:06:52.668Z,6.20
2018-05-01T23:09:20.889Z,6.40
2018-05-01T23:11:49.803Z,5.60
2018-05-01T23:14:18.020Z,5.50
2018-05-01T23:16:46.298Z,5.60
2018-05-01T23:19:14.882Z,5.70
2018-05-01T23:21:43.126Z,5.27
2018-05-01T23:24:11.352Z,5.73
2018-05-01T23:26:40.146Z,5.70
2018-05-01T23:29:08.365Z,6.00
2018-05-01T23:31:36.563Z,5.73
2018-05-01T23:34:05.106Z,6.07
2018-05-01T23:36:33.395Z,6.20
2018-05-01T23:39:01.594Z,5.77
2018-05-01T23:41:30.261Z,6.20
2018-05-01T23:43:58.530Z,6.17
2018-05-01T23:46:26.763Z,6.20
2018-05-01T23:48:55.587Z,6.00
2018-05-01T23:51:24.266Z,5.77
2018-05-01T23:53:52.445Z,5.30
2018-05-01T23:56:20.624Z,5.43
2018-05-01T23:58:49.419Z,6.33
